createdAt,value
2022-12-29T00:00:12.101Z,-0.36
2022-12-29T00:03:02.906Z,-0.41
2022-12-29T00:05:31.188Z,-0.47
2022-12-29T00:07:59.386Z,-0.53
2022-12-29T00:10:27.668Z,-0.59
2022-12-29T00:13:14.443Z,-0.63
2022-12-29T00:15:42.637Z,-0.69
2022-12-29T00:18:10.677Z,-0.74
2022-12-29T00:20:58.230Z,-0.79
2022-12-29T00:24:02.026Z,-0.85
2022-12-29T00:26:49.044Z,-0.88
2022-12-29T00:29:35.923Z,-0.88
2022-12-29T00:32:24.611Z,-0.88
2022-12-29T00:35:11.042Z,-0.91
2022-12-29T00:38:04.482Z,-0.90
2022-12-29T00:40:51.306Z,-0.87
2022-12-29T00:43:37.803Z,-0.84
2022-12-29T00:46:05.825Z,-0.82
2022-12-29T00:48:52.481Z,-0.82
2022-12-29T00:51:20.859Z,-0.84
2022-12-29T00:53:49.240Z,-0.85
2022-12-29T00:56:17.612Z,-0.85
2022-12-29T00:58:46.405Z,-0.85
2022-12-29T01:01:14.894Z,-0.84
2022-12-29T01:03:43.169Z,-0.82
2022-12-29T01:06:12.502Z,-0.81
2022-12-29T01:08:40.553Z,-0.78
2022-12-29T01:11:11.367Z,-0.75
2022-12-29T01:13:40.062Z,-0.74
2022-12-29T01:16:08.101Z,-0.75
2022-12-29T01:18:36.808Z,-0.82
2022-12-29T01:21:06.478Z,-0.86
2022-12-29T01:23:35.212Z,-0.90
2022-12-29T01:26:14.645Z,-0.94
2022-12-29T01:28:43.288Z,-0.99
2022-12-29T01:31:13.676Z,-1.05
2022-12-29T01:33:43.323Z,-1.08
2022-12-29T01:36:16.294Z,-1.08
2022-12-29T01:38:45.342Z,-1.06
2022-12-29T01:41:15.463Z,-1.02
2022-12-29T01:44:11.247Z,-0.98
2022-12-29T01:46:41.977Z,-0.95
2022-12-29T01:49:28.080Z,-0.93
2022-12-29T01:52:02.082Z,-0.94
2022-12-29T01:54:38.094Z,-0.95
2022-12-29T01:57:09.128Z,-0.97
2022-12-29T01:59:41.835Z,-0.99
2022-12-29T02:02:13.073Z,-1.05
2022-12-29T02:04:42.080Z,-1.11
2022-12-29T02:07:15.448Z,-1.18
2022-12-29T02:09:43.923Z,-1.23
2022-12-29T02:12:12.504Z,-1.26
2022-12-29T02:14:40.580Z,-1.30
2022-12-29T02:17:21.371Z,-1.34
2022-12-29T02:20:05.097Z,-1.36
2022-12-29T02:22:59.383Z,-1.41
2022-12-29T02:25:42.433Z,-1.42
2022-12-29T02:28:48.677Z,-1.40
2022-12-29T02:31:30.901Z,-1.37
2022-12-29T02:34:11.069Z,-1.35
2022-12-29T02:37:02.091Z,-1.33
2022-12-29T02:39:45.082Z,-1.32
2022-12-29T02:42:48.958Z,-1.33
2022-12-29T02:45:20.133Z,-1.37
2022-12-29T02:47:53.195Z,-1.39
2022-12-29T02:50:28.421Z,-1.40
2022-12-29T02:53:01.710Z,-1.42
2022-12-29T02:55:29.876Z,-1.44
2022-12-29T02:58:10.255Z,-1.47
2022-12-29T03:01:03.552Z,-1.53
2022-12-29T03:04:00.369Z,-1.56
2022-12-29T03:06:37.362Z,-1.55
2022-12-29T03:09:27.030Z,-1.53
2022-12-29T03:12:17.232Z,-1.57
2022-12-29T03:15:30.751Z,-1.58
2022-12-29T03:18:06.308Z,-1.57
2022-12-29T03:20:44.851Z,-1.53
2022-12-29T03:23:14.735Z,-1.50
2022-12-29T03:25:48.406Z,-1.46
2022-12-29T03:28:41.001Z,-1.40
2022-12-29T03:31:11.513Z,-1.35
2022-12-29T03:33:42.962Z,-1.33
2022-12-29T03:36:13.727Z,-1.33
2022-12-29T03:38:49.764Z,-1.37
2022-12-29T03:41:22.337Z,-1.40
2022-12-29T03:43:50.506Z,-1.42
2022-12-29T03:46:19.551Z,-1.46
2022-12-29T03:48:48.695Z,-1.48
2022-12-29T03:51:17.046Z,-1.49
2022-12-29T03:53:47.233Z,-1.51
2022-12-29T03:56:15.372Z,-1.52
2022-12-29T03:58:44.106Z,-1.55
2022-12-29T04:01:17.195Z,-1.56
2022-12-29T04:03:46.782Z,-1.58
2022-12-29T04:06:15.029Z,-1.63
2022-12-29T04:08:51.087Z,-1.66
2022-12-29T04:11:19.467Z,-1.63
2022-12-29T04:13:47.956Z,-1.58
2022-12-29T04:16:22.541Z,-1.50
2022-12-29T04:18:50.985Z,-1.47
2022-12-29T04:21:19.318Z,-1.40
2022-12-29T04:23:47.503Z,-1.39
2022-12-29T04:26:17.299Z,-1.39
2022-12-29T04:29:03.993Z,-1.39
2022-12-29T04:31:42.297Z,-1.44
2022-12-29T04:34:10.649Z,-1.49
2022-12-29T04:36:40.751Z,-1.59
2022-12-29T04:39:09.591Z,-1.67
2022-12-29T04:41:38.793Z,-1.77
2022-12-29T04:44:09.108Z,-1.81
2022-12-29T04:46:57.317Z,-1.85
2022-12-29T04:49:52.421Z,-1.92
2022-12-29T04:52:42.094Z,-1.94
2022-12-29T04:55:12.814Z,-1.99
2022-12-29T04:57:42.125Z,-2.03
2022-12-29T05:00:14.682Z,-2.06
2022-12-29T05:02:43.120Z,-2.10
2022-12-29T05:05:11.380Z,-2.20
2022-12-29T05:07:43.467Z,-2.27
2022-12-29T05:10:12.303Z,-2.31
2022-12-29T05:12:40.801Z,-2.31
2022-12-29T05:15:10.159Z,-2.28
2022-12-29T05:17:38.908Z,-2.25
2022-12-29T05:20:09.723Z,-2.22
2022-12-29T05:22:38.410Z,-2.24
2022-12-29T05:25:08.004Z,-2.25
2022-12-29T05:27:46.383Z,-2.24
2022-12-29T05:30:23.302Z,-2.26
2022-12-29T05:32:51.380Z,-2.29
2022-12-29T05:35:19.750Z,-2.31
2022-12-29T05:37:47.927Z,-2.35
2022-12-29T05:40:16.365Z,-2.37
2022-12-29T05:42:45.898Z,-2.39
2022-12-29T05:45:37.744Z,-2.43
2022-12-29T05:48:38.102Z,-2.48
2022-12-29T05:51:38.660Z,-2.51
2022-12-29T05:54:08.721Z,-2.51
2022-12-29T05:56:37.114Z,-2.50
2022-12-29T05:59:05.158Z,-2.49
2022-12-29T06:01:34.495Z,-2.48
2022-12-29T06:04:02.825Z,-2.45
2022-12-29T06:06:31.094Z,-2.41
2022-12-29T06:08:59.657Z,-2.37
2022-12-29T06:11:28.006Z,-2.30
2022-12-29T06:13:58.563Z,-2.21
2022-12-29T06:16:26.761Z,-2.09
2022-12-29T06:18:59.473Z,-2.00
2022-12-29T06:21:27.640Z,-1.91
2022-12-29T06:23:55.829Z,-1.88
2022-12-29T06:26:24.298Z,-1.87
2022-12-29T06:28:52.985Z,-1.86
2022-12-29T06:31:21.219Z,-1.87
2022-12-29T06:33:50.472Z,-1.87
2022-12-29T06:36:19.869Z,-1.86
2022-12-29T06:38:48.346Z,-1.87
2022-12-29T06:41:16.495Z,-1.90
2022-12-29T06:44:04.316Z,-1.94
2022-12-29T06:46:51.337Z,-1.94
2022-12-29T06:49:19.397Z,-1.94
2022-12-29T06:51:47.928Z,-1.93
2022-12-29T06:54:16.090Z,-1.91
2022-12-29T06:56:45.100Z,-1.82
2022-12-29T06:59:13.262Z,-1.65
2022-12-29T07:01:41.528Z,-1.47
2022-12-29T07:04:09.814Z,-1.31
2022-12-29T07:06:37.916Z,-1.15
2022-12-29T07:09:05.852Z,-1.01
2022-12-29T07:11:34.340Z,-0.89
2022-12-29T07:14:03.432Z,-0.85
2022-12-29T07:16:31.663Z,-0.90
2022-12-29T07:19:00.672Z,-0.95
2022-12-29T07:21:28.900Z,-0.99
2022-12-29T07:23:57.466Z,-0.95
2022-12-29T07:26:25.633Z,-0.91
2022-12-29T07:28:53.702Z,-0.87
2022-12-29T07:31:25.012Z,-0.91
2022-12-29T07:33:53.330Z,-0.92
2022-12-29T07:36:25.269Z,-0.94
2022-12-29T07:39:00.879Z,-0.99
2022-12-29T07:41:30.511Z,-1.08
2022-12-29T07:44:04.795Z,-1.12
2022-12-29T07:46:53.900Z,-1.12
2022-12-29T07:49:25.459Z,-1.12
2022-12-29T07:51:54.285Z,-1.05
2022-12-29T07:54:24.073Z,-0.96
2022-12-29T07:56:52.765Z,-0.91
2022-12-29T07:59:20.793Z,-0.88
2022-12-29T08:01:49.393Z,-0.87
2022-12-29T08:04:17.489Z,-0.84
2022-12-29T08:06:46.682Z,-0.79
2022-12-29T08:09:21.486Z,-0.71
2022-12-29T08:11:50.714Z,-0.59
2022-12-29T08:14:20.429Z,-0.51
2022-12-29T08:16:48.647Z,-0.44
2022-12-29T08:19:16.764Z,-0.43
2022-12-29T08:21:45.065Z,-0.45
2022-12-29T08:24:13.467Z,-0.46
2022-12-29T08:26:41.528Z,-0.48
2022-12-29T08:29:09.692Z,-0.50
2022-12-29T08:31:38.251Z,-0.55
2022-12-29T08:34:06.881Z,-0.55
2022-12-29T08:36:35.064Z,-0.54
2022-12-29T08:39:06.268Z,-0.53
2022-12-29T08:41:34.573Z,-0.50
2022-12-29T08:44:02.658Z,-0.45
2022-12-29T08:46:30.825Z,-0.40
2022-12-29T08:49:00.317Z,-0.35
2022-12-29T08:51:28.644Z,-0.27
2022-12-29T08:53:56.743Z,-0.18
2022-12-29T08:56:24.918Z,-0.05
2022-12-29T08:58:54.094Z,0.07
2022-12-29T09:01:24.206Z,0.18
2022-12-29T09:06:41.045Z,0.41
2022-12-29T09:09:09.177Z,0.47
2022-12-29T09:11:37.697Z,0.52
2022-12-29T09:14:06.121Z,0.59
2022-12-29T09:16:35.424Z,0.63
2022-12-29T09:19:03.797Z,0.66
2022-12-29T09:21:32.462Z,0.67
2022-12-29T09:24:00.530Z,0.69
2022-12-29T09:26:28.623Z,0.65
2022-12-29T09:28:58.145Z,0.65
2022-12-29T09:31:26.251Z,0.63
2022-12-29T09:33:54.535Z,0.63
2022-12-29T09:36:22.552Z,0.63
2022-12-29T09:38:50.549Z,0.62
2022-12-29T09:41:27.878Z,0.64
2022-12-29T09:44:11.433Z,0.66
2022-12-29T09:46:46.415Z,0.72
2022-12-29T09:49:40.892Z,0.78
2022-12-29T09:52:39.425Z,0.87
2022-12-29T09:55:14.510Z,0.97
2022-12-29T09:57:55.944Z,1.09
2022-12-29T10:00:35.058Z,1.19
2022-12-29T10:03:15.781Z,1.28
2022-12-29T10:06:15.334Z,1.34
2022-12-29T10:08:51.126Z,1.44
2022-12-29T10:11:37.841Z,1.52
2022-12-29T10:14:07.590Z,1.60
2022-12-29T10:16:59.346Z,1.68
2022-12-29T10:20:09.492Z,1.77
2022-12-29T10:22:56.608Z,1.92
2022-12-29T10:25:28.410Z,2.10
2022-12-29T10:28:01.641Z,2.27
2022-12-29T10:30:30.103Z,2.46
2022-12-29T10:33:06.911Z,2.60
2022-12-29T10:35:40.138Z,2.71
2022-12-29T10:38:17.285Z,2.81
2022-12-29T10:40:54.988Z,2.91
2022-12-29T10:43:30.318Z,3.04
2022-12-29T10:46:04.176Z,3.20
2022-12-29T10:48:35.683Z,3.36
2022-12-29T10:51:06.746Z,3.50
2022-12-29T10:53:41.549Z,3.63
2022-12-29T10:56:21.619Z,3.76
2022-12-29T10:58:50.916Z,3.93
2022-12-29T11:01:19.551Z,4.09
2022-12-29T11:03:55.351Z,4.23
2022-12-29T11:06:28.089Z,4.36
2022-12-29T11:09:12.684Z,4.44
2022-12-29T11:11:40.744Z,4.54
2022-12-29T11:14:18.995Z,4.64
2022-12-29T11:16:58.425Z,4.78
2022-12-29T11:19:29.160Z,4.94
2022-12-29T11:22:21.394Z,5.09
2022-12-29T11:24:51.613Z,5.27
2022-12-29T11:27:24.500Z,5.46
2022-12-29T11:29:54.479Z,5.60
2022-12-29T11:32:29.132Z,5.69
2022-12-29T11:34:59.822Z,5.81
2022-12-29T11:37:35.754Z,5.91
2022-12-29T11:40:17.218Z,6.04
2022-12-29T11:42:52.358Z,6.22
2022-12-29T11:45:25.815Z,6.42
2022-12-29T11:48:16.262Z,6.63
2022-12-29T11:50:53.634Z,6.84
2022-12-29T11:53:44.380Z,6.99
2022-12-29T11:56:16.034Z,7.16
2022-12-29T11:58:44.892Z,7.23
2022-12-29T12:01:35.025Z,7.26
2022-12-29T12:04:15.375Z,7.23
2022-12-29T12:06:58.092Z,7.18
2022-12-29T12:09:38.427Z,7.12
2022-12-29T12:12:07.029Z,7.06
2022-12-29T12:14:44.958Z,7.00
2022-12-29T12:17:28.542Z,6.88
2022-12-29T12:20:16.156Z,6.70
2022-12-29T12:22:51.911Z,6.60
2022-12-29T12:25:25.209Z,6.47
2022-12-29T12:27:59.395Z,6.39
2022-12-29T12:30:31.496Z,6.28
2022-12-29T12:33:15.574Z,6.15
2022-12-29T12:36:08.598Z,6.07
2022-12-29T12:38:56.367Z,5.99
2022-12-29T12:41:59.730Z,5.95
2022-12-29T12:44:38.088Z,5.85
2022-12-29T12:47:24.623Z,5.79
2022-12-29T12:50:17.867Z,5.72
2022-12-29T12:52:45.842Z,5.68
2022-12-29T12:55:49.333Z,5.64
2022-12-29T12:58:32.256Z,5.59
2022-12-29T13:01:21.500Z,5.57
2022-12-29T13:04:20.450Z,5.54
2022-12-29T13:07:00.749Z,5.48
2022-12-29T13:09:42.195Z,5.42
2022-12-29T13:12:26.572Z,5.31
2022-12-29T13:15:09.912Z,5.22
2022-12-29T13:18:02.245Z,5.12
2022-12-29T13:20:37.769Z,5.04
2022-12-29T13:23:18.876Z,4.96
2022-12-29T13:26:01.016Z,4.88
2022-12-29T13:28:53.345Z,4.78
2022-12-29T13:31:33.628Z,4.68
2022-12-29T13:34:11.149Z,4.58
2022-12-29T13:36:45.463Z,4.50
2022-12-29T13:39:27.774Z,4.44
2022-12-29T13:41:57.077Z,4.40
2022-12-29T13:44:37.232Z,4.34
2022-12-29T13:47:35.385Z,4.26
2022-12-29T13:50:05.589Z,4.18
2022-12-29T13:52:39.386Z,4.13
2022-12-29T13:55:28.192Z,4.11
2022-12-29T13:58:33.621Z,4.07
2022-12-29T14:01:03.615Z,4.01
2022-12-29T14:03:50.092Z,3.96
2022-12-29T14:06:20.942Z,3.94
2022-12-29T14:08:49.770Z,3.92
2022-12-29T14:11:19.250Z,3.90
2022-12-29T14:13:48.153Z,3.87
2022-12-29T14:16:35.212Z,3.83
2022-12-29T14:19:33.068Z,3.78
2022-12-29T14:22:04.515Z,3.76
2022-12-29T14:24:32.522Z,3.73
2022-12-29T14:27:00.666Z,3.70
2022-12-29T14:29:31.805Z,3.63
2022-12-29T14:31:59.817Z,3.64
2022-12-29T14:34:39.832Z,3.69
2022-12-29T14:37:24.612Z,3.68
2022-12-29T14:40:07.871Z,3.68
2022-12-29T14:42:36.467Z,3.67
2022-12-29T14:45:13.854Z,3.66
2022-12-29T14:47:42.851Z,3.65
2022-12-29T14:50:23.577Z,3.59
2022-12-29T14:53:03.485Z,3.54
2022-12-29T14:55:47.488Z,3.47
2022-12-29T14:58:23.493Z,3.42
2022-12-29T15:00:51.692Z,3.35
2022-12-29T15:03:25.425Z,3.28
2022-12-29T15:05:56.753Z,3.22
2022-12-29T15:08:31.991Z,3.13
2022-12-29T15:11:07.647Z,3.11
2022-12-29T15:13:37.891Z,3.11
2022-12-29T15:16:06.975Z,3.08
2022-12-29T15:18:35.700Z,3.03
2022-12-29T15:21:06.089Z,2.97
2022-12-29T15:23:36.145Z,2.91
2022-12-29T15:26:09.084Z,2.86
2022-12-29T15:28:42.522Z,2.80
2022-12-29T15:31:29.967Z,2.75
2022-12-29T15:34:12.322Z,2.72
2022-12-29T15:36:42.512Z,2.66
2022-12-29T15:39:21.509Z,2.61
2022-12-29T15:42:03.415Z,2.56
2022-12-29T15:44:41.488Z,2.50
2022-12-29T15:47:24.522Z,2.46
2022-12-29T15:49:57.507Z,2.42
2022-12-29T15:52:25.685Z,2.39
2022-12-29T15:54:54.590Z,2.35
2022-12-29T15:57:26.501Z,2.35
2022-12-29T15:59:55.091Z,2.36
2022-12-29T16:02:25.082Z,2.37
2022-12-29T16:07:53.524Z,2.43
2022-12-29T16:10:57.442Z,2.42
2022-12-29T16:13:39.792Z,2.42
2022-12-29T16:16:24.844Z,2.43
2022-12-29T16:18:57.654Z,2.43
2022-12-29T16:21:33.203Z,2.43
2022-12-29T16:24:06.372Z,2.44
2022-12-29T16:26:34.439Z,2.48
2022-12-29T16:29:05.453Z,2.54
2022-12-29T16:31:49.083Z,2.59
2022-12-29T16:34:41.129Z,2.64
2022-12-29T16:37:32.027Z,2.70
2022-12-29T16:40:27.248Z,2.76
2022-12-29T16:43:00.414Z,2.81
2022-12-29T16:45:54.684Z,2.87
2022-12-29T16:48:27.431Z,2.92
2022-12-29T16:51:29.725Z,2.94
2022-12-29T16:53:57.885Z,2.91
2022-12-29T16:56:28.966Z,2.94
2022-12-29T16:59:06.221Z,2.96
2022-12-29T17:01:39.825Z,3.00
2022-12-29T17:04:12.548Z,3.01
2022-12-29T17:06:41.244Z,3.03
2022-12-29T17:09:27.626Z,2.99
2022-12-29T17:12:05.342Z,2.97
2022-12-29T17:14:47.260Z,2.95
2022-12-29T17:17:22.489Z,2.95
2022-12-29T17:19:53.087Z,2.94
2022-12-29T17:22:27.086Z,2.95
2022-12-29T17:24:57.068Z,2.95
2022-12-29T17:27:26.396Z,2.92
2022-12-29T17:29:57.983Z,2.91
2022-12-29T17:32:26.873Z,2.92
2022-12-29T17:34:55.101Z,2.93
2022-12-29T17:37:30.463Z,2.93
2022-12-29T17:39:58.678Z,2.91
2022-12-29T17:42:27.168Z,2.90
2022-12-29T17:44:55.794Z,2.91
2022-12-29T17:47:23.943Z,2.92
2022-12-29T17:49:52.047Z,2.91
2022-12-29T17:52:20.613Z,2.91
2022-12-29T17:54:52.557Z,2.91
2022-12-29T17:57:21.489Z,2.92
2022-12-29T17:59:50.083Z,2.94
2022-12-29T18:02:27.157Z,2.99
2022-12-29T18:04:55.549Z,3.03
2022-12-29T18:07:30.986Z,3.06
2022-12-29T18:10:02.250Z,3.06
2022-12-29T18:12:50.499Z,3.10
2022-12-29T18:15:27.776Z,3.12
2022-12-29T18:18:13.025Z,3.15
2022-12-29T18:20:43.173Z,3.14
2022-12-29T18:23:29.179Z,3.10
2022-12-29T18:26:00.768Z,3.08
2022-12-29T18:28:29.324Z,3.07
2022-12-29T18:30:59.408Z,3.06
2022-12-29T18:33:28.942Z,3.03
2022-12-29T18:36:01.111Z,3.03
2022-12-29T18:38:29.935Z,3.02
2022-12-29T18:40:58.753Z,3.03
2022-12-29T18:43:26.849Z,3.02
2022-12-29T18:45:54.964Z,3.02
2022-12-29T18:48:23.070Z,3.00
2022-12-29T18:50:52.035Z,2.97
2022-12-29T18:53:23.611Z,2.96
2022-12-29T18:55:52.511Z,2.99
2022-12-29T18:58:20.787Z,3.05
2022-12-29T19:00:49.032Z,3.11
2022-12-29T19:03:18.876Z,3.17
2022-12-29T19:05:47.984Z,3.26
2022-12-29T19:08:16.375Z,3.32
2022-12-29T19:10:45.258Z,3.34
2022-12-29T19:13:19.523Z,3.34
2022-12-29T19:15:47.784Z,3.38
2022-12-29T19:21:07.991Z,3.46
2022-12-29T19:23:35.965Z,3.47
2022-12-29T19:26:04.144Z,3.47
2022-12-29T19:28:32.261Z,3.48
2022-12-29T19:31:02.023Z,3.46
2022-12-29T19:33:30.571Z,3.44
2022-12-29T19:36:01.391Z,3.43
2022-12-29T19:38:29.956Z,3.40
2022-12-29T19:40:58.758Z,3.35
2022-12-29T19:43:29.121Z,3.36
2022-12-29T19:45:57.366Z,3.40
2022-12-29T19:48:25.549Z,3.45
2022-12-29T19:50:53.618Z,3.49
2022-12-29T19:53:21.894Z,3.53
2022-12-29T19:55:50.176Z,3.56
2022-12-29T19:58:19.456Z,3.56
2022-12-29T20:00:47.540Z,3.55
2022-12-29T20:03:15.678Z,3.55
2022-12-29T20:05:49.133Z,3.50
2022-12-29T20:08:17.144Z,3.43
2022-12-29T20:10:45.258Z,3.36
2022-12-29T20:13:13.427Z,3.30
2022-12-29T20:15:44.270Z,3.29
2022-12-29T20:18:14.097Z,3.25
2022-12-29T20:20:43.130Z,3.23
2022-12-29T20:23:11.395Z,3.22
2022-12-29T20:25:47.469Z,3.21
2022-12-29T20:28:17.197Z,3.22
2022-12-29T20:30:45.582Z,3.25
2022-12-29T20:33:13.987Z,3.26
2022-12-29T20:35:42.328Z,3.29
2022-12-29T20:38:10.614Z,3.34
2022-12-29T20:40:45.903Z,3.41
2022-12-29T20:43:15.809Z,3.49
2022-12-29T20:45:43.891Z,3.54
2022-12-29T20:48:12.334Z,3.57
2022-12-29T20:50:40.447Z,3.62
2022-12-29T20:53:08.647Z,3.64
2022-12-29T20:55:40.827Z,3.69
2022-12-29T20:58:26.003Z,3.73
2022-12-29T21:00:55.271Z,3.75
2022-12-29T21:03:24.788Z,3.79
2022-12-29T21:05:54.005Z,3.83
2022-12-29T21:08:23.669Z,3.84
2022-12-29T21:10:51.999Z,3.84
2022-12-29T21:13:20.117Z,3.83
2022-12-29T21:15:48.626Z,3.83
2022-12-29T21:18:16.559Z,3.83
2022-12-29T21:20:44.828Z,3.78
2022-12-29T21:23:12.915Z,3.75
2022-12-29T21:25:43.475Z,3.75
2022-12-29T21:28:14.258Z,3.74
2022-12-29T21:30:42.347Z,3.74
2022-12-29T21:33:10.989Z,3.75
2022-12-29T21:35:39.119Z,3.74
2022-12-29T21:38:07.738Z,3.72
2022-12-29T21:40:37.767Z,3.69
2022-12-29T21:43:07.260Z,3.66
2022-12-29T21:45:35.600Z,3.65
2022-12-29T21:48:24.328Z,3.65
2022-12-29T21:51:17.561Z,3.64
2022-12-29T21:53:45.739Z,3.66
2022-12-29T21:56:15.927Z,3.69
2022-12-29T21:59:05.034Z,3.71
2022-12-29T22:01:54.383Z,3.72
2022-12-29T22:04:43.509Z,3.72
2022-12-29T22:07:31.468Z,3.70
2022-12-29T22:10:18.242Z,3.66
2022-12-29T22:13:01.842Z,3.62
2022-12-29T22:15:34.523Z,3.58
2022-12-29T22:18:03.944Z,3.55
2022-12-29T22:20:35.220Z,3.53
2022-12-29T22:23:04.090Z,3.52
2022-12-29T22:25:35.847Z,3.52
2022-12-29T22:28:04.063Z,3.51
2022-12-29T22:30:32.967Z,3.52
2022-12-29T22:33:01.901Z,3.49
2022-12-29T22:35:30.468Z,3.45
2022-12-29T22:37:58.424Z,3.42
2022-12-29T22:40:26.555Z,3.38
2022-12-29T22:42:55.880Z,3.37
2022-12-29T22:45:23.959Z,3.40
2022-12-29T22:47:52.034Z,3.46
2022-12-29T22:50:20.017Z,3.57
2022-12-29T22:52:48.090Z,3.67
2022-12-29T22:55:16.255Z,3.73
2022-12-29T22:57:44.437Z,3.77
2022-12-29T23:00:12.939Z,3.81
2022-12-29T23:02:41.165Z,3.81
2022-12-29T23:05:09.657Z,3.80
2022-12-29T23:07:37.879Z,3.81
2022-12-29T23:10:06.605Z,3.84
2022-12-29T23:12:34.563Z,3.85
2022-12-29T23:15:02.912Z,3.84
2022-12-29T23:17:30.960Z,3.85
2022-12-29T23:19:59.567Z,3.83
2022-12-29T23:22:27.625Z,3.83
2022-12-29T23:24:55.703Z,3.83
2022-12-29T23:27:23.899Z,3.81
2022-12-29T23:29:52.768Z,3.79
2022-12-29T23:32:20.840Z,3.78
2022-12-29T23:34:48.813Z,3.80
2022-12-29T23:37:17.382Z,3.82
2022-12-29T23:39:45.506Z,3.81
2022-12-29T23:42:13.478Z,3.80
2022-12-29T23:44:41.497Z,3.79
2022-12-29T23:47:09.718Z,3.82
2022-12-29T23:49:37.884Z,3.82
2022-12-29T23:52:06.127Z,3.80
2022-12-29T23:54:34.466Z,3.82
2022-12-29T23:57:02.683Z,3.82
2022-12-29T23:59:30.750Z,3.83
